Time;durP1;ratioP1;P1;durP2;ratioP2;P2;SDS_P1;SDS_P2;PMS_P1;PMS_P2;Temp;Humidity;BMP_temperature;BMP_pressure;BME280_temperature;BME280_humidity;BME280_pressure;Samples;Min_cycle;Max_cycle;Signal;HPM_P1;HPM_P2
2021/12/18 00:00:42;;;;;;;31.13;15.93;;;;;;;;;;5115240;28;20818;-72
2021/12/18 00:03:09;;;;;;;36.50;17.50;;;;;;;;;;5115177;28;20449;-71
2021/12/18 00:05:36;;;;;;;40.73;18.07;;;;;;;;;;5114496;28;20465;-71
2021/12/18 00:08:03;;;;;;;33.23;15.27;;;;;;;;;;5115188;28;20467;-71
2021/12/18 00:10:30;;;;;;;38.77;17.00;;;;;;;;;;5114943;28;20460;-71
2021/12/18 00:13:00;;;;;;;31.80;15.70;;;;;;;;;;5115021;28;20456;-71
2021/12/18 00:15:29;;;;;;;37.07;15.27;;;;;;;;;;5113723;28;20488;-71
2021/12/18 00:17:56;;;;;;;28.87;15.47;;;;;;;;;;5114753;28;20464;-71
2021/12/18 00:20:25;;;;;;;33.80;15.50;;;;;;;;;;5114834;28;20450;-71
2021/12/18 00:22:53;;;;;;;32.90;15.57;;;;;;;;;;5114851;28;20868;-71
2021/12/18 00:25:20;;;;;;;44.17;19.30;;;;;;;;;;5114236;28;20522;-71
2021/12/18 00:27:47;;;;;;;35.50;16.50;;;;;;;;;;5114631;28;20989;-71
2021/12/18 00:30:16;;;;;;;32.27;15.90;;;;;;;;;;5114496;28;20556;-71
2021/12/18 00:32:43;;;;;;;35.97;14.70;;;;;;;;;;5114540;28;20820;-71
2021/12/18 00:35:10;;;;;;;31.43;16.07;;;;;;;;;;5114337;28;20973;-71
2021/12/18 00:37:37;;;;;;;38.03;17.20;;;;;;;;;;5114365;28;20450;-72
2021/12/18 00:40:09;;;;;;;42.23;17.47;;;;;;;;;;5114490;28;20446;-71
2021/12/18 00:42:42;;;;;;;39.47;16.73;;;;;;;;;;5114208;28;20458;-71
2021/12/18 00:45:10;;;;;;;29.23;14.50;;;;;;;;;;5114029;28;20473;-71
2021/12/18 00:47:39;;;;;;;37.23;17.60;;;;;;;;;;5113831;28;20489;-71
2021/12/18 00:50:08;;;;;;;38.90;16.97;;;;;;;;;;5114219;28;20456;-71
2021/12/18 00:52:35;;;;;;;35.10;17.37;;;;;;;;;;5114035;28;20445;-71
2021/12/18 00:55:02;;;;;;;35.23;18.13;;;;;;;;;;5113745;28;20813;-71
2021/12/18 00:57:29;;;;;;;31.67;16.23;;;;;;;;;;5113969;28;20467;-71
2021/12/18 01:00:00;;;;;;;31.13;15.60;;;;;;;;;;5114190;28;20452;-71
2021/12/18 01:02:28;;;;;;;41.00;18.47;;;;;;;;;;5114026;28;20453;-71
2021/12/18 01:04:56;;;;;;;41.03;15.90;;;;;;;;;;5113758;28;20477;-71
2021/12/18 01:07:24;;;;;;;34.07;15.67;;;;;;;;;;5113781;28;20488;-72
2021/12/18 01:10:01;;;;;;;40.77;17.77;;;;;;;;;;5114055;28;20456;-71
2021/12/18 01:12:34;;;;;;;38.60;17.67;;;;;;;;;;5113886;28;20457;-71
2021/12/18 01:15:13;;;;;;;43.13;18.80;;;;;;;;;;5113445;28;20899;-71
2021/12/18 01:23:11;;;;;;;35.47;15.43;;;;;;;;;;5113873;28;20796;-71
2021/12/18 01:25:38;;;;;;;36.17;15.83;;;;;;;;;;5113313;28;20461;-71
2021/12/18 01:28:06;;;;;;;32.97;15.33;;;;;;;;;;5113594;28;21026;-71
2021/12/18 01:30:33;;;;;;;39.00;17.53;;;;;;;;;;5113498;28;20458;-71
2021/12/18 01:33:00;;;;;;;35.80;16.63;;;;;;;;;;5113661;28;20449;-71
2021/12/18 01:35:29;;;;;;;33.70;16.23;;;;;;;;;;5113203;28;20469;-71
2021/12/18 01:37:57;;;;;;;40.77;16.70;;;;;;;;;;5113350;28;20445;-71
2021/12/18 01:40:24;;;;;;;39.17;18.37;;;;;;;;;;5113433;28;20545;-71
2021/12/18 01:46:03;;;;;;;45.17;16.60;;;;;;;;;;5113068;28;20472;-71
2021/12/18 01:51:20;;;;;;;35.50;17.20;;;;;;;;;;5113474;28;20410;-71
2021/12/18 01:53:49;;;;;;;30.97;15.33;;;;;;;;;;5113184;28;20514;-71
2021/12/18 01:56:16;;;;;;;33.23;17.03;;;;;;;;;;5113334;28;20446;-71
2021/12/18 01:58:45;;;;;;;45.30;18.77;;;;;;;;;;5115377;28;20452;-71
2021/12/18 02:01:12;;;;;;;42.30;18.50;;;;;;;;;;5117575;28;20460;-71
2021/12/18 02:03:39;;;;;;;39.60;17.07;;;;;;;;;;5117075;28;20457;-72
2021/12/18 02:06:07;;;;;;;40.30;18.30;;;;;;;;;;5117512;28;20449;-72
2021/12/18 02:08:38;;;;;;;42.50;17.07;;;;;;;;;;5117327;28;20519;-71
2021/12/18 02:11:13;;;;;;;41.30;18.50;;;;;;;;;;5117434;28;20456;-71
2021/12/18 02:14:02;;;;;;;34.77;17.50;;;;;;;;;;5117214;28;20441;-72
2021/12/18 02:19:47;;;;;;;36.17;16.80;;;;;;;;;;5117307;28;21044;-71
2021/12/18 02:22:16;;;;;;;46.03;18.77;;;;;;;;;;5117209;28;20453;-71
2021/12/18 02:24:43;;;;;;;35.27;17.20;;;;;;;;;;5116663;28;20466;-71
2021/12/18 02:27:11;;;;;;;43.53;17.50;;;;;;;;;;5116997;28;20491;-71
2021/12/18 02:29:39;;;;;;;42.97;16.83;;;;;;;;;;5116949;28;21000;-71
2021/12/18 02:32:07;;;;;;;37.27;15.10;;;;;;;;;;5117037;28;20449;-71
2021/12/18 02:34:37;;;;;;;36.43;17.37;;;;;;;;;;5116544;28;20488;-71
2021/12/18 02:37:06;;;;;;;37.83;17.83;;;;;;;;;;5117047;28;20934;-71
2021/12/18 02:39:55;;;;;;;39.03;17.40;;;;;;;;;;5116947;28;20461;-71
2021/12/18 02:42:22;;;;;;;41.43;17.77;;;;;;;;;;5116809;28;20802;-71
2021/12/18 02:44:49;;;;;;;45.80;16.17;;;;;;;;;;5116580;28;20461;-71
2021/12/18 02:47:17;;;;;;;34.43;15.63;;;;;;;;;;5116705;28;20481;-71
2021/12/18 02:49:45;;;;;;;36.80;16.80;;;;;;;;;;5116476;28;20949;-71
2021/12/18 02:52:13;;;;;;;37.50;15.10;;;;;;;;;;5116372;28;20452;-71
2021/12/18 02:54:41;;;;;;;34.00;15.10;;;;;;;;;;5116175;28;20465;-71
2021/12/18 02:57:08;;;;;;;42.57;13.93;;;;;;;;;;5116608;28;20438;-71
2021/12/18 02:59:45;;;;;;;30.87;12.17;;;;;;;;;;5116453;28;20450;-71
2021/12/18 03:02:13;;;;;;;32.30;14.83;;;;;;;;;;5116165;28;20460;-71
2021/12/18 03:04:42;;;;;;;30.77;11.70;;;;;;;;;;5116055;28;20970;-71
2021/12/18 03:07:11;;;;;;;26.87;12.70;;;;;;;;;;5116237;28;20488;-71
2021/12/18 03:23:38;;;;;;;27.50;13.17;;;;;;;;;;5115872;28;20506;-72
2021/12/18 03:26:05;;;;;;;25.17;13.40;;;;;;;;;;5116069;28;20481;-71
2021/12/18 03:28:34;;;;;;;22.33;10.80;;;;;;;;;;5115778;28;20857;-71
2021/12/18 03:31:01;;;;;;;24.60;11.27;;;;;;;;;;5115860;28;20520;-71
2021/12/18 03:33:28;;;;;;;27.30;11.90;;;;;;;;;;5115581;28;20449;-72
2021/12/18 03:35:55;;;;;;;31.00;12.23;;;;;;;;;;5115979;28;20470;-71
2021/12/18 03:38:23;;;;;;;28.00;12.47;;;;;;;;;;5115728;28;20964;-71
2021/12/18 03:40:50;;;;;;;27.03;12.70;;;;;;;;;;5115674;28;20446;-71
2021/12/18 03:43:17;;;;;;;30.23;14.53;;;;;;;;;;5115473;28;20517;-71
2021/12/18 03:45:46;;;;;;;30.13;13.40;;;;;;;;;;5115257;28;20929;-71
2021/12/18 03:48:13;;;;;;;26.87;14.60;;;;;;;;;;5115477;28;20493;-71
2021/12/18 03:50:40;;;;;;;34.70;12.93;;;;;;;;;;5115412;28;20779;-71
2021/12/18 03:53:07;;;;;;;33.63;13.97;;;;;;;;;;5115472;28;20449;-71
2021/12/18 03:55:34;;;;;;;35.27;13.57;;;;;;;;;;5115003;28;20832;-71
2021/12/18 03:58:01;;;;;;;26.27;12.30;;;;;;;;;;5115422;28;20448;-71
2021/12/18 04:00:28;;;;;;;29.63;13.03;;;;;;;;;;5115359;28;20465;-71
2021/12/18 04:02:57;;;;;;;26.40;12.73;;;;;;;;;;5115475;28;20786;-71
2021/12/18 04:05:24;;;;;;;30.17;14.37;;;;;;;;;;5114805;28;20469;-71
2021/12/18 04:07:51;;;;;;;29.60;14.40;;;;;;;;;;5115127;28;20503;-71
2021/12/18 04:10:19;;;;;;;25.33;12.93;;;;;;;;;;5115164;28;20799;-71
2021/12/18 04:12:48;;;;;;;30.60;13.93;;;;;;;;;;5114950;28;20441;-72
2021/12/18 04:15:16;;;;;;;31.83;14.30;;;;;;;;;;5114121;28;20513;-72
2021/12/18 04:17:44;;;;;;;29.93;13.07;;;;;;;;;;5114953;28;20942;-72
2021/12/18 04:20:15;;;;;;;23.90;12.00;;;;;;;;;;5114326;28;20453;-72
2021/12/18 04:22:42;;;;;;;22.87;11.17;;;;;;;;;;5114465;28;20456;-71
2021/12/18 04:25:09;;;;;;;20.53;9.90;;;;;;;;;;5114554;28;20467;-72
2021/12/18 04:27:36;;;;;;;22.20;11.83;;;;;;;;;;5114566;28;20485;-72
2021/12/18 04:30:04;;;;;;;25.10;13.17;;;;;;;;;;5114693;28;20516;-72
2021/12/18 04:32:31;;;;;;;23.00;11.33;;;;;;;;;;5114478;28;20456;-72
2021/12/18 04:34:58;;;;;;;30.67;15.40;;;;;;;;;;5114336;28;20897;-71
2021/12/18 04:37:26;;;;;;;29.50;14.73;;;;;;;;;;5114548;28;20437;-72
2021/12/18 04:39:54;;;;;;;27.10;13.77;;;;;;;;;;5114655;28;20453;-72
2021/12/18 04:42:21;;;;;;;27.03;11.70;;;;;;;;;;5114282;28;20446;-72
2021/12/18 04:44:48;;;;;;;24.63;11.70;;;;;;;;;;5114137;28;20814;-72
2021/12/18 04:47:15;;;;;;;31.10;13.67;;;;;;;;;;5114189;28;21012;-72
2021/12/18 04:49:42;;;;;;;27.27;12.73;;;;;;;;;;5114174;28;20453;-72
2021/12/18 04:52:09;;;;;;;25.93;12.10;;;;;;;;;;5114246;28;20815;-71
2021/12/18 04:54:38;;;;;;;35.07;15.60;;;;;;;;;;5113726;28;20476;-72
2021/12/18 04:57:05;;;;;;;21.73;11.93;;;;;;;;;;5114062;28;20450;-72
2021/12/18 04:59:32;;;;;;;26.93;11.63;;;;;;;;;;5114066;28;20450;-71
2021/12/18 05:01:59;;;;;;;28.03;11.80;;;;;;;;;;5114180;28;20441;-71
2021/12/18 05:04:27;;;;;;;21.57;11.60;;;;;;;;;;5113676;28;20484;-71
2021/12/18 05:06:54;;;;;;;28.40;13.00;;;;;;;;;;5114082;28;20453;-71
2021/12/18 05:09:21;;;;;;;29.53;13.23;;;;;;;;;;5113818;28;20508;-72
2021/12/18 05:11:50;;;;;;;39.20;15.60;;;;;;;;;;5114135;28;20947;-71
2021/12/18 05:14:18;;;;;;;23.30;13.33;;;;;;;;;;5113294;28;20478;-72
2021/12/18 05:16:45;;;;;;;24.90;11.60;;;;;;;;;;5113707;28;20465;-71
2021/12/18 05:19:12;;;;;;;29.27;11.80;;;;;;;;;;5113832;28;20866;-71
2021/12/18 05:21:39;;;;;;;24.40;10.97;;;;;;;;;;5113596;28;20450;-72
2021/12/18 05:24:07;;;;;;;29.03;13.33;;;;;;;;;;5113456;28;20813;-72
2021/12/18 05:26:34;;;;;;;22.77;12.30;;;;;;;;;;5113598;28;20456;-71
2021/12/18 05:29:03;;;;;;;19.37;11.40;;;;;;;;;;5113601;28;20485;-71
2021/12/18 05:31:30;;;;;;;25.23;12.53;;;;;;;;;;5113386;28;20445;-71
2021/12/18 05:34:02;;;;;;;27.07;14.07;;;;;;;;;;5113346;28;20457;-72
2021/12/18 05:36:34;;;;;;;29.33;13.30;;;;;;;;;;5113409;28;20449;-72
2021/12/18 05:39:02;;;;;;;26.37;12.07;;;;;;;;;;5113612;28;20449;-71
2021/12/18 05:41:29;;;;;;;22.53;12.10;;;;;;;;;;5113382;28;20457;-71
2021/12/18 05:43:56;;;;;;;24.13;13.20;;;;;;;;;;5113097;28;20450;-72
2021/12/18 05:46:25;;;;;;;24.53;12.17;;;;;;;;;;5113306;28;20453;-71
2021/12/18 05:48:52;;;;;;;24.70;13.43;;;;;;;;;;5113250;28;20488;-71
2021/12/18 05:51:19;;;;;;;23.20;11.90;;;;;;;;;;5113390;28;20465;-71
2021/12/18 05:53:46;;;;;;;23.60;12.20;;;;;;;;;;5113221;28;21074;-72
2021/12/18 05:56:13;;;;;;;23.10;12.47;;;;;;;;;;5113401;28;20953;-72
2021/12/18 05:58:43;;;;;;;24.40;12.93;;;;;;;;;;5113446;28;20469;-72
2021/12/18 06:01:10;;;;;;;31.00;14.47;;;;;;;;;;5113408;28;20804;-72
2021/12/18 06:03:39;;;;;;;27.77;13.27;;;;;;;;;;5112966;28;20449;-72
2021/12/18 06:06:06;;;;;;;27.60;14.77;;;;;;;;;;5113319;28;20449;-72
2021/12/18 06:08:35;;;;;;;24.10;12.27;;;;;;;;;;5113047;28;20923;-72
2021/12/18 06:11:07;;;;;;;24.57;12.60;;;;;;;;;;5113299;28;20450;-72
2021/12/18 06:13:35;;;;;;;23.83;13.50;;;;;;;;;;5112950;28;20457;-71
2021/12/18 06:16:05;;;;;;;20.63;10.87;;;;;;;;;;5112588;28;20492;-71
2021/12/18 06:18:32;;;;;;;25.10;13.43;;;;;;;;;;5113143;28;20453;-71
2021/12/18 06:21:01;;;;;;;23.50;12.13;;;;;;;;;;5113225;28;20641;-71
2021/12/18 06:23:28;;;;;;;27.67;14.10;;;;;;;;;;5112746;28;20454;-72
2021/12/18 06:25:55;;;;;;;29.77;14.33;;;;;;;;;;5113084;28;20833;-71
2021/12/18 06:28:22;;;;;;;28.03;13.67;;;;;;;;;;5112281;28;20497;-71
2021/12/18 06:30:50;;;;;;;27.00;13.23;;;;;;;;;;5113035;28;20445;-71
2021/12/18 06:33:18;;;;;;;26.63;13.53;;;;;;;;;;5112847;28;20855;-71
2021/12/18 06:35:45;;;;;;;29.73;14.10;;;;;;;;;;5112748;28;20966;-71
2021/12/18 06:38:13;;;;;;;22.53;13.73;;;;;;;;;;5112971;28;20449;-71
2021/12/18 06:40:41;;;;;;;31.07;14.77;;;;;;;;;;5113044;28;20449;-72
2021/12/18 06:43:08;;;;;;;23.27;12.13;;;;;;;;;;5113025;28;20449;-72
2021/12/18 06:45:35;;;;;;;23.43;12.23;;;;;;;;;;5115730;28;20827;-71
2021/12/18 06:48:02;;;;;;;33.33;12.90;;;;;;;;;;5116579;28;20488;-71
2021/12/18 06:50:29;;;;;;;25.83;13.53;;;;;;;;;;5116583;28;20456;-71
2021/12/18 06:52:57;;;;;;;24.43;12.43;;;;;;;;;;5116723;28;20828;-71
2021/12/18 06:55:25;;;;;;;24.23;12.63;;;;;;;;;;5116192;28;20848;-71
2021/12/18 06:57:52;;;;;;;41.33;18.30;;;;;;;;;;5116509;28;20820;-71
2021/12/18 07:00:20;;;;;;;29.47;14.50;;;;;;;;;;5116438;28;20445;-71
2021/12/18 07:02:48;;;;;;;27.63;14.37;;;;;;;;;;5116832;28;20929;-71
2021/12/18 07:05:15;;;;;;;21.73;11.80;;;;;;;;;;5116136;28;20969;-71
2021/12/18 07:07:43;;;;;;;28.00;13.70;;;;;;;;;;5116228;28;20445;-71
2021/12/18 07:10:11;;;;;;;21.13;11.97;;;;;;;;;;5116457;28;20449;-71
2021/12/18 07:12:40;;;;;;;27.20;12.67;;;;;;;;;;5116027;28;20453;-71
2021/12/18 07:15:08;;;;;;;26.90;10.70;;;;;;;;;;5115345;28;21011;-71
2021/12/18 07:17:35;;;;;;;21.87;11.70;;;;;;;;;;5116033;28;20449;-71
2021/12/18 07:20:02;;;;;;;32.20;16.47;;;;;;;;;;5116196;28;20906;-71
2021/12/18 07:22:29;;;;;;;26.83;11.90;;;;;;;;;;5115722;28;20445;-72
2021/12/18 07:24:56;;;;;;;19.40;11.27;;;;;;;;;;5115552;28;20481;-71
2021/12/18 07:27:23;;;;;;;22.27;12.07;;;;;;;;;;5115965;28;20458;-71
2021/12/18 07:29:52;;;;;;;24.50;11.47;;;;;;;;;;5115918;28;21027;-71
2021/12/18 07:32:19;;;;;;;24.70;12.70;;;;;;;;;;5115875;28;20452;-71
2021/12/18 07:34:46;;;;;;;24.60;12.70;;;;;;;;;;5115599;28;20465;-71
2021/12/18 07:37:13;;;;;;;22.77;11.30;;;;;;;;;;5115827;28;20452;-71
2021/12/18 07:39:40;;;;;;;27.70;12.60;;;;;;;;;;5115577;28;20449;-71
2021/12/18 07:42:08;;;;;;;21.47;10.80;;;;;;;;;;5115862;28;20969;-71
2021/12/18 07:44:35;;;;;;;28.03;13.07;;;;;;;;;;5115269;28;20489;-71
2021/12/18 07:47:04;;;;;;;23.37;12.80;;;;;;;;;;5115648;28;20458;-71
2021/12/18 07:49:31;;;;;;;24.20;12.23;;;;;;;;;;5115252;28;20492;-71
2021/12/18 07:52:02;;;;;;;20.60;11.73;;;;;;;;;;5115423;28;20461;-71
2021/12/18 07:54:29;;;;;;;20.57;11.50;;;;;;;;;;5115060;28;20478;-71
2021/12/18 07:56:56;;;;;;;25.90;12.70;;;;;;;;;;5115333;28;20445;-71
2021/12/18 07:59:24;;;;;;;23.07;12.73;;;;;;;;;;5115164;28;20930;-71
2021/12/18 08:01:51;;;;;;;29.67;16.20;;;;;;;;;;5115027;28;20458;-71
2021/12/18 08:04:19;;;;;;;33.87;15.80;;;;;;;;;;5114563;28;20501;-71
2021/12/18 08:06:46;;;;;;;30.93;14.47;;;;;;;;;;5115071;28;20445;-71
2021/12/18 08:09:13;;;;;;;29.23;13.57;;;;;;;;;;5115062;28;20493;-71
2021/12/18 08:11:40;;;;;;;27.97;13.90;;;;;;;;;;5114823;28;20450;-71
2021/12/18 08:14:08;;;;;;;26.73;13.30;;;;;;;;;;5114640;28;20480;-69
2021/12/18 08:16:35;;;;;;;31.57;14.47;;;;;;;;;;5114200;28;20859;-71
2021/12/18 08:19:02;;;;;;;21.07;10.77;;;;;;;;;;5114689;28;20449;-71
2021/12/18 08:21:30;;;;;;;24.80;11.80;;;;;;;;;;5114639;28;20465;-69
2021/12/18 08:23:57;;;;;;;20.50;10.90;;;;;;;;;;5114428;28;20454;-72
2021/12/18 08:26:25;;;;;;;25.27;12.73;;;;;;;;;;5114532;28;20454;-71
2021/12/18 08:28:53;;;;;;;24.30;12.57;;;;;;;;;;5114599;28;20481;-69
2021/12/18 08:31:20;;;;;;;21.83;10.83;;;;;;;;;;5114508;28;20442;-69
2021/12/18 08:33:47;;;;;;;26.60;11.00;;;;;;;;;;5114123;28;20438;-70
2021/12/18 08:36:14;;;;;;;26.30;12.43;;;;;;;;;;5114569;28;20809;-71
2021/12/18 08:38:43;;;;;;;25.33;12.50;;;;;;;;;;5114457;28;20445;-69
2021/12/18 08:41:11;;;;;;;24.13;13.50;;;;;;;;;;5114519;28;20461;-69
2021/12/18 08:43:38;;;;;;;26.53;13.37;;;;;;;;;;5114060;28;20446;-71
2021/12/18 08:46:05;;;;;;;32.30;13.57;;;;;;;;;;5114215;28;20454;-70
2021/12/18 08:48:32;;;;;;;31.97;14.03;;;;;;;;;;5113927;28;20493;-70
2021/12/18 08:50:59;;;;;;;29.37;13.60;;;;;;;;;;5114287;28;20448;-70
2021/12/18 08:53:28;;;;;;;25.03;11.87;;;;;;;;;;5089603;28;20468;-70
2021/12/18 08:55:57;;;;;;;25.70;11.60;;;;;;;;;;5092404;28;20473;-70
2021/12/18 08:58:24;;;;;;;23.20;11.37;;;;;;;;;;5092341;28;20822;-70
2021/12/18 09:00:51;;;;;;;19.80;11.10;;;;;;;;;;5092237;28;20882;-70
2021/12/18 09:03:19;;;;;;;29.23;12.63;;;;;;;;;;5092410;28;20459;-70
2021/12/18 09:05:47;;;;;;;21.40;11.07;;;;;;;;;;5092000;28;20492;-71
2021/12/18 09:08:14;;;;;;;28.37;12.60;;;;;;;;;;5091853;28;20884;-70
2021/12/18 09:10:41;;;;;;;21.20;11.27;;;;;;;;;;5091796;28;20488;-70
2021/12/18 09:13:10;;;;;;;22.70;11.70;;;;;;;;;;5091926;28;20458;-70
2021/12/18 09:15:37;;;;;;;26.00;11.27;;;;;;;;;;5091284;28;20486;-70
2021/12/18 09:18:04;;;;;;;25.90;13.30;;;;;;;;;;5092045;28;20447;-70
2021/12/18 09:20:32;;;;;;;31.50;12.30;;;;;;;;;;5092091;28;20458;-70
2021/12/18 09:23:00;;;;;;;22.60;12.33;;;;;;;;;;5082827;28;20477;-69
2021/12/18 09:25:28;;;;;;;23.70;11.10;;;;;;;;;;5091503;28;20853;-70
2021/12/18 09:27:56;;;;;;;19.63;10.47;;;;;;;;;;5092005;28;20458;-69
2021/12/18 09:30:25;;;;;;;24.40;11.90;;;;;;;;;;5091608;28;21061;-70
2021/12/18 09:32:53;;;;;;;27.53;12.23;;;;;;;;;;5104446;28;20487;-70
2021/12/18 09:35:21;;;;;;;26.30;12.90;;;;;;;;;;5113393;28;20944;-70
2021/12/18 09:37:48;;;;;;;25.03;12.07;;;;;;;;;;5113491;28;20450;-69
2021/12/18 09:40:17;;;;;;;24.40;13.93;;;;;;;;;;5113318;28;20468;-69
2021/12/18 09:42:44;;;;;;;22.70;12.97;;;;;;;;;;5113509;28;20465;-69
2021/12/18 09:45:12;;;;;;;20.03;10.83;;;;;;;;;;5113009;28;20477;-70
2021/12/18 09:47:40;;;;;;;29.33;13.70;;;;;;;;;;5113181;28;20496;-70
2021/12/18 09:50:08;;;;;;;21.83;11.03;;;;;;;;;;5113415;28;20481;-70
2021/12/18 09:52:35;;;;;;;25.10;10.77;;;;;;;;;;5112954;28;20934;-70
2021/12/18 09:55:04;;;;;;;26.37;12.60;;;;;;;;;;5112905;28;20469;-70
2021/12/18 09:57:32;;;;;;;27.47;14.27;;;;;;;;;;5113077;28;20457;-70
2021/12/18 09:59:59;;;;;;;19.00;10.73;;;;;;;;;;5113085;28;20446;-70
2021/12/18 10:02:26;;;;;;;25.43;13.30;;;;;;;;;;5112842;28;20454;-70
2021/12/18 10:04:55;;;;;;;23.50;13.27;;;;;;;;;;5112739;28;20472;-70
2021/12/18 10:07:23;;;;;;;26.83;11.43;;;;;;;;;;5113042;28;20763;-70
2021/12/18 10:09:53;;;;;;;22.93;11.50;;;;;;;;;;5113160;28;20481;-70
2021/12/18 10:12:21;;;;;;;19.50;10.33;;;;;;;;;;5113292;28;20460;-70
2021/12/18 10:14:50;;;;;;;19.80;10.90;;;;;;;;;;5112507;28;20470;-70
2021/12/18 10:17:30;;;;;;;21.37;11.43;;;;;;;;;;5113141;28;20452;-70
2021/12/18 10:20:15;;;;;;;19.17;10.07;;;;;;;;;;5114918;28;20453;-70
2021/12/18 10:22:45;;;;;;;23.27;12.40;;;;;;;;;;5116996;28;20486;-70
2021/12/18 10:25:13;;;;;;;22.43;11.90;;;;;;;;;;5116882;28;20564;-71
2021/12/18 10:27:42;;;;;;;22.87;10.33;;;;;;;;;;5117103;28;20457;-71
2021/12/18 10:30:15;;;;;;;17.63;9.53;;;;;;;;;;5116940;28;20480;-71
2021/12/18 10:32:45;;;;;;;56.27;26.30;;;;;;;;;;5117024;28;20458;-71
2021/12/18 10:35:12;;;;;;;33.60;15.53;;;;;;;;;;5116720;28;20476;-71
2021/12/18 10:37:39;;;;;;;23.60;12.63;;;;;;;;;;5117089;28;20453;-71
2021/12/18 10:40:09;;;;;;;22.23;10.70;;;;;;;;;;5116933;28;20953;-71
2021/12/18 10:42:39;;;;;;;18.90;10.10;;;;;;;;;;5116652;28;20502;-71
2021/12/18 10:45:12;;;;;;;128.37;36.23;;;;;;;;;;5116455;28;20560;-71
2021/12/18 10:47:46;;;;;;;33.67;13.30;;;;;;;;;;5116918;28;20541;-71
2021/12/18 10:50:18;;;;;;;26.33;11.40;;;;;;;;;;5116923;28;20487;-71
2021/12/18 10:52:45;;;;;;;26.77;12.03;;;;;;;;;;5116778;28;20450;-71
2021/12/18 10:55:14;;;;;;;21.10;12.20;;;;;;;;;;5116359;28;20845;-71
2021/12/18 10:57:51;;;;;;;21.50;11.00;;;;;;;;;;5116621;28;20670;-71
2021/12/18 11:00:21;;;;;;;26.50;11.97;;;;;;;;;;5116616;28;20451;-71
2021/12/18 11:02:48;;;;;;;23.47;10.67;;;;;;;;;;5116641;28;20492;-71
2021/12/18 11:05:16;;;;;;;27.17;12.90;;;;;;;;;;5116156;28;20488;-71
2021/12/18 11:07:46;;;;;;;22.77;11.23;;;;;;;;;;5116183;28;20484;-71
2021/12/18 11:10:42;;;;;;;26.90;11.90;;;;;;;;;;5116633;28;20945;-71
2021/12/18 11:15:54;;;;;;;21.23;11.03;;;;;;;;;;5115680;28;20526;-71
2021/12/18 11:18:22;;;;;;;27.57;12.97;;;;;;;;;;5116139;28;20527;-71
2021/12/18 11:20:50;;;;;;;22.63;12.30;;;;;;;;;;5116254;28;20444;-71
2021/12/18 11:23:17;;;;;;;34.80;17.10;;;;;;;;;;5115921;28;20445;-71
2021/12/18 11:25:46;;;;;;;33.20;17.87;;;;;;;;;;5115470;28;20804;-71
2021/12/18 11:28:14;;;;;;;27.47;14.30;;;;;;;;;;5115775;28;20461;-71
2021/12/18 11:30:41;;;;;;;27.60;14.20;;;;;;;;;;5115205;28;20838;-71
2021/12/18 11:33:08;;;;;;;28.70;14.53;;;;;;;;;;5115854;28;20457;-71
2021/12/18 11:35:36;;;;;;;29.70;14.63;;;;;;;;;;5115461;28;20992;-71
2021/12/18 11:38:07;;;;;;;34.40;16.17;;;;;;;;;;5115861;28;20541;-71
2021/12/18 11:40:35;;;;;;;23.27;13.70;;;;;;;;;;5115767;28;20456;-71
2021/12/18 11:43:06;;;;;;;30.70;17.47;;;;;;;;;;5115626;28;20448;-71
2021/12/18 11:45:35;;;;;;;22.43;13.53;;;;;;;;;;5115270;28;20575;-71
2021/12/18 11:48:03;;;;;;;21.30;12.80;;;;;;;;;;5107507;28;20503;-71
2021/12/18 11:50:31;;;;;;;29.10;16.33;;;;;;;;;;5115350;28;20485;-71
2021/12/18 11:53:00;;;;;;;26.90;13.70;;;;;;;;;;5115489;28;20456;-71
2021/12/18 11:55:28;;;;;;;25.20;15.00;;;;;;;;;;5115392;28;20469;-71
2021/12/18 11:57:58;;;;;;;25.80;15.03;;;;;;;;;;5115202;28;20456;-70
2021/12/18 12:00:35;;;;;;;28.37;15.50;;;;;;;;;;5115316;28;20446;-70
2021/12/18 12:03:02;;;;;;;22.60;13.97;;;;;;;;;;5115401;28;20453;-70
2021/12/18 12:05:33;;;;;;;28.50;14.07;;;;;;;;;;5114909;28;20465;-71
2021/12/18 12:08:15;;;;;;;24.60;13.03;;;;;;;;;;5115054;28;20445;-71
2021/12/18 12:11:05;;;;;;;26.33;16.00;;;;;;;;;;5114916;28;20493;-71
2021/12/18 12:13:51;;;;;;;31.00;15.20;;;;;;;;;;5114921;28;20453;-71
2021/12/18 12:16:20;;;;;;;25.47;14.57;;;;;;;;;;5114547;28;20976;-71
2021/12/18 12:19:02;;;;;;;27.67;16.03;;;;;;;;;;5114944;28;20452;-71
2021/12/18 12:21:47;;;;;;;29.03;15.07;;;;;;;;;;5114719;28;20449;-71
2021/12/18 12:24:14;;;;;;;30.60;19.30;;;;;;;;;;5114485;28;20470;-71
2021/12/18 12:26:42;;;;;;;34.63;17.60;;;;;;;;;;5114717;28;20453;-71
2021/12/18 12:29:10;;;;;;;25.80;15.73;;;;;;;;;;5114692;28;20450;-71
2021/12/18 12:31:38;;;;;;;35.27;20.60;;;;;;;;;;5114539;28;20496;-71
2021/12/18 12:34:21;;;;;;;26.23;16.23;;;;;;;;;;5114464;28;20477;-71
2021/12/18 12:36:49;;;;;;;32.00;15.70;;;;;;;;;;5114860;28;20449;-71
2021/12/18 12:39:17;;;;;;;27.70;14.50;;;;;;;;;;5114646;28;20449;-71
2021/12/18 12:41:49;;;;;;;28.33;15.40;;;;;;;;;;5113838;28;20450;-71
2021/12/18 12:44:34;;;;;;;30.23;15.77;;;;;;;;;;5114240;28;20565;-71
2021/12/18 12:47:16;;;;;;;30.37;17.57;;;;;;;;;;5114599;28;20820;-71
2021/12/18 12:49:44;;;;;;;23.30;14.63;;;;;;;;;;5114220;28;20469;-71
2021/12/18 12:52:12;;;;;;;29.53;16.43;;;;;;;;;;5114445;28;20449;-71
2021/12/18 12:54:45;;;;;;;30.47;15.90;;;;;;;;;;5113901;28;20971;-71
2021/12/18 12:57:30;;;;;;;31.80;15.40;;;;;;;;;;5114116;28;20453;-71
2021/12/18 13:00:14;;;;;;;25.93;13.67;;;;;;;;;;5114130;28;20441;-71
2021/12/18 13:02:51;;;;;;;22.73;12.83;;;;;;;;;;5113985;28;20817;-71
2021/12/18 13:05:19;;;;;;;25.63;14.50;;;;;;;;;;5113829;28;20469;-71
2021/12/18 13:07:47;;;;;;;28.23;15.20;;;;;;;;;;5114092;28;20442;-71
2021/12/18 13:10:18;;;;;;;32.17;16.60;;;;;;;;;;5114003;28;20485;-71
2021/12/18 13:12:52;;;;;;;33.40;18.30;;;;;;;;;;5113830;28;20442;-71
2021/12/18 13:15:20;;;;;;;32.87;18.10;;;;;;;;;;5113215;28;21016;-71
2021/12/18 13:17:49;;;;;;;37.33;17.73;;;;;;;;;;5114032;28;20449;-71
2021/12/18 13:20:16;;;;;;;42.07;20.87;;;;;;;;;;5113953;28;20442;-71
2021/12/18 13:22:53;;;;;;;47.33;21.80;;;;;;;;;;5113688;28;20450;-71
2021/12/18 13:25:20;;;;;;;40.63;20.30;;;;;;;;;;5113525;28;20548;-71
2021/12/18 13:28:03;;;;;;;35.70;20.40;;;;;;;;;;5114095;28;20938;-71
2021/12/18 13:30:30;;;;;;;35.33;17.97;;;;;;;;;;5113574;28;20476;-71
2021/12/18 13:33:00;;;;;;;44.73;21.60;;;;;;;;;;5113790;28;20457;-71
2021/12/18 13:35:28;;;;;;;38.73;21.30;;;;;;;;;;5113238;28;20473;-71
2021/12/18 13:37:56;;;;;;;30.80;16.37;;;;;;;;;;5113573;28;20453;-71
2021/12/18 13:40:23;;;;;;;34.77;18.33;;;;;;;;;;5113492;28;20500;-71
2021/12/18 13:43:03;;;;;;;34.03;19.10;;;;;;;;;;5113486;28;20457;-71
2021/12/18 13:45:31;;;;;;;33.90;18.90;;;;;;;;;;5113549;28;20465;-71
2021/12/18 13:48:02;;;;;;;28.80;16.53;;;;;;;;;;5113374;28;20446;-71
2021/12/18 13:50:29;;;;;;;34.23;17.30;;;;;;;;;;5113321;28;20488;-71
2021/12/18 13:52:57;;;;;;;39.93;18.80;;;;;;;;;;5114852;28;20456;-71
2021/12/18 13:55:27;;;;;;;36.17;17.20;;;;;;;;;;5119909;28;20837;-71
2021/12/18 13:58:06;;;;;;;36.07;17.70;;;;;;;;;;5120135;28;20453;-71
2021/12/18 14:00:50;;;;;;;37.00;17.77;;;;;;;;;;5120051;28;20473;-71
2021/12/18 14:03:19;;;;;;;33.47;18.60;;;;;;;;;;5120089;28;20960;-71
2021/12/18 14:05:47;;;;;;;26.67;17.30;;;;;;;;;;5119867;28;20477;-71
2021/12/18 14:08:15;;;;;;;36.73;19.47;;;;;;;;;;5120144;28;20469;-71
2021/12/18 14:10:43;;;;;;;29.77;17.90;;;;;;;;;;5120049;28;21201;-71
2021/12/18 14:13:10;;;;;;;34.47;18.07;;;;;;;;;;5120009;28;20449;-71
2021/12/18 14:15:38;;;;;;;34.60;16.83;;;;;;;;;;5119370;28;20481;-71
2021/12/18 14:18:20;;;;;;;35.73;18.20;;;;;;;;;;5120091;28;20449;-71
2021/12/18 14:20:48;;;;;;;35.00;19.30;;;;;;;;;;5119167;28;20456;-71
2021/12/18 14:23:15;;;;;;;39.30;21.83;;;;;;;;;;5119873;28;20464;-71
2021/12/18 14:25:43;;;;;;;31.37;18.33;;;;;;;;;;5119670;28;20450;-71
2021/12/18 14:28:19;;;;;;;39.17;20.67;;;;;;;;;;5119705;28;20448;-71
2021/12/18 14:30:47;;;;;;;37.77;18.53;;;;;;;;;;5119958;28;20481;-71
2021/12/18 14:33:16;;;;;;;40.13;19.60;;;;;;;;;;5120013;28;20441;-71
2021/12/18 14:35:50;;;;;;;33.80;18.10;;;;;;;;;;5119648;28;20518;-71
2021/12/18 14:38:17;;;;;;;34.23;19.40;;;;;;;;;;5119628;28;20452;-71
2021/12/18 14:40:45;;;;;;;35.70;19.40;;;;;;;;;;5119848;28;20445;-71
2021/12/18 14:43:15;;;;;;;35.50;19.10;;;;;;;;;;5119907;28;20456;-71
2021/12/18 14:45:42;;;;;;;36.43;21.10;;;;;;;;;;5119522;28;20504;-71
2021/12/18 14:48:09;;;;;;;48.03;24.90;;;;;;;;;;5119958;28;20799;-71
2021/12/18 14:50:38;;;;;;;41.17;22.27;;;;;;;;;;5119583;28;20516;-71
2021/12/18 14:53:11;;;;;;;57.43;27.17;;;;;;;;;;5119762;28;20499;-71
2021/12/18 14:55:40;;;;;;;56.00;29.23;;;;;;;;;;5119367;28;20481;-71
2021/12/18 14:58:09;;;;;;;33.33;16.97;;;;;;;;;;5119570;28;20445;-71